sensor_id;sensor_type;location;lat;lon;timestamp;temperature;humidity
54461;DHT22;40371;49.414;11.010;2023-04-24T00:02:21;12.90;99.90
54461;DHT22;40371;49.414;11.010;2023-04-24T00:04:47;12.80;99.90
54461;DHT22;40371;49.414;11.010;2023-04-24T00:07:14;12.70;99.90
54461;DHT22;40371;49.414;11.010;2023-04-24T00:09:42;12.50;99.90
54461;DHT22;40371;49.414;11.010;2023-04-24T00:12:08;12.40;99.90
54461;DHT22;40371;49.414;11.010;2023-04-24T00:14:34;12.40;99.90
54461;DHT22;40371;49.414;11.010;2023-04-24T00:17:00;12.50;99.90
54461;DHT22;40371;49.414;11.010;2023-04-24T00:19:28;12.50;99.90
54461;DHT22;40371;49.414;11.010;2023-04-24T00:21:54;12.60;99.90
54461;DHT22;40371;49.414;11.010;2023-04-24T00:24:20;12.80;99.90
54461;DHT22;40371;49.414;11.010;2023-04-24T00:26:45;13.00;99.90
54461;DHT22;40371;49.414;11.010;2023-04-24T00:29:11;13.00;99.90
54461;DHT22;40371;49.414;11.010;2023-04-24T00:31:37;13.00;99.90
54461;DHT22;40371;49.414;11.010;2023-04-24T00:34:03;12.90;99.90
54461;DHT22;40371;49.414;11.010;2023-04-24T00:36:28;12.60;99.90
54461;DHT22;40371;49.414;11.010;2023-04-24T00:38:56;12.50;99.90
54461;DHT22;40371;49.414;11.010;2023-04-24T00:41:24;12.50;99.90
54461;DHT22;40371;49.414;11.010;2023-04-24T00:43:50;12.50;99.90
54461;DHT22;40371;49.414;11.010;2023-04-24T00:46:16;12.40;99.90
54461;DHT22;40371;49.414;11.010;2023-04-24T00:48:43;12.40;99.90
54461;DHT22;40371;49.414;11.010;2023-04-24T00:51:09;12.50;99.90
54461;DHT22;40371;49.414;11.010;2023-04-24T00:53:34;12.40;99.90
54461;DHT22;40371;49.414;11.010;2023-04-24T00:56:00;12.40;99.90
54461;DHT22;40371;49.414;11.010;2023-04-24T00:58:26;12.50;99.90
54461;DHT22;40371;49.414;11.010;2023-04-24T01:00:53;12.80;99.90
54461;DHT22;40371;49.414;11.010;2023-04-24T01:03:25;12.60;99.90
54461;DHT22;40371;49.414;11.010;2023-04-24T01:05:52;12.50;99.90
54461;DHT22;40371;49.414;11.010;2023-04-24T01:08:20;12.50;99.90
54461;DHT22;40371;49.414;11.010;2023-04-24T01:10:46;12.60;99.90
54461;DHT22;40371;49.414;11.010;2023-04-24T01:13:13;12.60;99.90
54461;DHT22;40371;49.414;11.010;2023-04-24T01:15:38;12.50;99.90
54461;DHT22;40371;49.414;11.010;2023-04-24T01:18:04;12.40;99.90
54461;DHT22;40371;49.414;11.010;2023-04-24T01:20:30;12.40;99.90
54461;DHT22;40371;49.414;11.010;2023-04-24T01:22:57;12.40;99.90
54461;DHT22;40371;49.414;11.010;2023-04-24T01:25:24;12.50;99.90
54461;DHT22;40371;49.414;11.010;2023-04-24T01:27:50;12.50;99.90
54461;DHT22;40371;49.414;11.010;2023-04-24T01:30:17;12.50;99.90
54461;DHT22;40371;49.414;11.010;2023-04-24T01:32:42;12.40;99.90
54461;DHT22;40371;49.414;11.010;2023-04-24T01:35:11;12.30;99.90
54461;DHT22;40371;49.414;11.010;2023-04-24T01:37:37;12.30;99.90
54461;DHT22;40371;49.414;11.010;2023-04-24T01:40:05;12.30;99.90
54461;DHT22;40371;49.414;11.010;2023-04-24T01:42:31;12.30;99.90
54461;DHT22;40371;49.414;11.010;2023-04-24T01:44:57;12.50;99.90
54461;DHT22;40371;49.414;11.010;2023-04-24T01:47:23;12.60;99.90
54461;DHT22;40371;49.414;11.010;2023-04-24T01:49:50;12.70;99.90
54461;DHT22;40371;49.414;11.010;2023-04-24T01:52:16;12.80;99.90
54461;DHT22;40371;49.414;11.010;2023-04-24T01:54:43;12.70;99.90
54461;DHT22;40371;49.414;11.010;2023-04-24T01:57:08;12.80;99.90
54461;DHT22;40371;49.414;11.010;2023-04-24T01:59:34;12.70;99.90
54461;DHT22;40371;49.414;11.010;2023-04-24T02:02:02;12.80;99.90
54461;DHT22;40371;49.414;11.010;2023-04-24T02:04:28;12.70;99.90
54461;DHT22;40371;49.414;11.010;2023-04-24T02:06:53;12.70;99.90
54461;DHT22;40371;49.414;11.010;2023-04-24T02:09:19;12.70;99.90
54461;DHT22;40371;49.414;11.010;2023-04-24T02:11:45;12.70;99.90
54461;DHT22;40371;49.414;11.010;2023-04-24T02:14:10;12.70;99.90
54461;DHT22;40371;49.414;11.010;2023-04-24T02:16:39;12.60;99.90
54461;DHT22;40371;49.414;11.010;2023-04-24T02:19:04;12.70;99.90
54461;DHT22;40371;49.414;11.010;2023-04-24T02:21:30;12.70;99.90
54461;DHT22;40371;49.414;11.010;2023-04-24T02:23:59;12.70;99.90
54461;DHT22;40371;49.414;11.010;2023-04-24T02:26:24;12.80;99.90
54461;DHT22;40371;49.414;11.010;2023-04-24T02:28:51;12.80;99.90
54461;DHT22;40371;49.414;11.010;2023-04-24T02:31:19;12.80;99.90
54461;DHT22;40371;49.414;11.010;2023-04-24T02:33:47;12.80;99.90
54461;DHT22;40371;49.414;11.010;2023-04-24T02:36:12;12.70;99.90
54461;DHT22;40371;49.414;11.010;2023-04-24T02:38:39;12.80;99.90
54461;DHT22;40371;49.414;11.010;2023-04-24T02:41:05;12.80;99.90
54461;DHT22;40371;49.414;11.010;2023-04-24T02:43:32;12.60;99.90
54461;DHT22;40371;49.414;11.010;2023-04-24T02:45:58;12.60;99.90
54461;DHT22;40371;49.414;11.010;2023-04-24T02:48:24;12.60;99.90
54461;DHT22;40371;49.414;11.010;2023-04-24T02:50:50;12.50;99.90
54461;DHT22;40371;49.414;11.010;2023-04-24T02:53:16;12.40;99.90
54461;DHT22;40371;49.414;11.010;2023-04-24T02:55:42;12.40;99.90
54461;DHT22;40371;49.414;11.010;2023-04-24T02:58:07;12.40;99.90
54461;DHT22;40371;49.414;11.010;2023-04-24T03:00:33;12.30;99.90
54461;DHT22;40371;49.414;11.010;2023-04-24T03:02:59;12.40;99.90
54461;DHT22;40371;49.414;11.010;2023-04-24T03:05:25;12.40;99.90
54461;DHT22;40371;49.414;11.010;2023-04-24T03:07:50;12.10;99.90
54461;DHT22;40371;49.414;11.010;2023-04-24T03:10:18;11.90;99.90
54461;DHT22;40371;49.414;11.010;2023-04-24T03:12:43;11.80;99.90
54461;DHT22;40371;49.414;11.010;2023-04-24T03:15:09;11.70;99.90
54461;DHT22;40371;49.414;11.010;2023-04-24T03:17:36;11.60;99.90
54461;DHT22;40371;49.414;11.010;2023-04-24T03:20:02;11.50;99.90
54461;DHT22;40371;49.414;11.010;2023-04-24T03:22:30;11.40;99.90
54461;DHT22;40371;49.414;11.010;2023-04-24T03:24:58;11.40;99.90
54461;DHT22;40371;49.414;11.010;2023-04-24T03:27:24;11.40;99.90
54461;DHT22;40371;49.414;11.010;2023-04-24T03:29:54;11.40;99.90
54461;DHT22;40371;49.414;11.010;2023-04-24T03:32:24;11.40;99.90
54461;DHT22;40371;49.414;11.010;2023-04-24T03:34:50;11.20;99.90
54461;DHT22;40371;49.414;11.010;2023-04-24T03:37:16;11.40;99.90
54461;DHT22;40371;49.414;11.010;2023-04-24T03:39:47;11.60;99.90
54461;DHT22;40371;49.414;11.010;2023-04-24T03:42:14;11.60;99.90
54461;DHT22;40371;49.414;11.010;2023-04-24T03:44:49;11.40;99.90
54461;DHT22;40371;49.414;11.010;2023-04-24T03:47:15;11.20;99.90
54461;DHT22;40371;49.414;11.010;2023-04-24T03:49:41;11.30;99.90
54461;DHT22;40371;49.414;11.010;2023-04-24T03:52:10;11.50;99.90
54461;DHT22;40371;49.414;11.010;2023-04-24T03:54:35;11.60;99.90
54461;DHT22;40371;49.414;11.010;2023-04-24T03:57:01;11.70;99.90
54461;DHT22;40371;49.414;11.010;2023-04-24T03:59:29;11.70;99.90
54461;DHT22;40371;49.414;11.010;2023-04-24T04:02:10;11.60;99.90
54461;DHT22;40371;49.414;11.010;2023-04-24T04:04:36;11.40;99.90
54461;DHT22;40371;49.414;11.010;2023-04-24T04:07:02;11.30;99.90
54461;DHT22;40371;49.414;11.010;2023-04-24T04:09:28;11.30;99.90
54461;DHT22;40371;49.414;11.010;2023-04-24T04:11:54;11.00;99.90
54461;DHT22;40371;49.414;11.010;2023-04-24T04:14:21;11.00;99.90
54461;DHT22;40371;49.414;11.010;2023-04-24T04:16:47;10.90;99.90
54461;DHT22;40371;49.414;11.010;2023-04-24T04:19:13;10.80;99.90
54461;DHT22;40371;49.414;11.010;2023-04-24T04:21:39;10.70;99.90
54461;DHT22;40371;49.414;11.010;2023-04-24T04:24:14;10.80;99.90
54461;DHT22;40371;49.414;11.010;2023-04-24T04:26:43;11.10;99.90
54461;DHT22;40371;49.414;11.010;2023-04-24T04:29:15;11.20;99.90
54461;DHT22;40371;49.414;11.010;2023-04-24T04:31:42;11.00;99.90
54461;DHT22;40371;49.414;11.010;2023-04-24T04:34:11;11.10;99.90
54461;DHT22;40371;49.414;11.010;2023-04-24T04:36:38;11.00;99.90
54461;DHT22;40371;49.414;11.010;2023-04-24T04:39:18;11.00;99.90
54461;DHT22;40371;49.414;11.010;2023-04-24T04:42:04;11.20;99.90
54461;DHT22;40371;49.414;11.010;2023-04-24T04:44:36;11.30;99.90
54461;DHT22;40371;49.414;11.010;2023-04-24T04:47:02;11.10;99.90
54461;DHT22;40371;49.414;11.010;2023-04-24T04:49:32;11.30;99.90
54461;DHT22;40371;49.414;11.010;2023-04-24T04:51:58;11.20;99.90
54461;DHT22;40371;49.414;11.010;2023-04-24T04:54:25;11.00;99.90
54461;DHT22;40371;49.414;11.010;2023-04-24T04:56:51;11.00;99.90
54461;DHT22;40371;49.414;11.010;2023-04-24T04:59:17;10.90;99.90
54461;DHT22;40371;49.414;11.010;2023-04-24T05:01:42;11.00;99.90
54461;DHT22;40371;49.414;11.010;2023-04-24T05:04:10;11.10;99.90
54461;DHT22;40371;49.414;11.010;2023-04-24T05:06:36;11.00;99.90
54461;DHT22;40371;49.414;11.010;2023-04-24T05:09:04;10.90;99.90
54461;DHT22;40371;49.414;11.010;2023-04-24T05:11:39;10.80;99.90
54461;DHT22;40371;49.414;11.010;2023-04-24T05:14:04;11.00;99.90
54461;DHT22;40371;49.414;11.010;2023-04-24T05:16:38;11.00;99.90
54461;DHT22;40371;49.414;11.010;2023-04-24T05:19:05;11.20;99.90
54461;DHT22;40371;49.414;11.010;2023-04-24T05:21:35;11.30;99.90
54461;DHT22;40371;49.414;11.010;2023-04-24T05:24:01;11.50;99.90
54461;DHT22;40371;49.414;11.010;2023-04-24T05:26:47;11.50;99.90
54461;DHT22;40371;49.414;11.010;2023-04-24T05:29:15;11.50;99.90
54461;DHT22;40371;49.414;11.010;2023-04-24T05:31:41;11.50;99.90
54461;DHT22;40371;49.414;11.010;2023-04-24T05:34:07;11.10;99.90
54461;DHT22;40371;49.414;11.010;2023-04-24T05:36:34;11.10;99.90
54461;DHT22;40371;49.414;11.010;2023-04-24T05:38:59;11.00;99.90
54461;DHT22;40371;49.414;11.010;2023-04-24T05:41:25;11.10;99.90
54461;DHT22;40371;49.414;11.010;2023-04-24T05:43:51;11.40;99.90
54461;DHT22;40371;49.414;11.010;2023-04-24T05:46:16;11.20;99.90
54461;DHT22;40371;49.414;11.010;2023-04-24T05:48:42;11.20;99.90
54461;DHT22;40371;49.414;11.010;2023-04-24T05:51:09;11.30;99.90
54461;DHT22;40371;49.414;11.010;2023-04-24T05:53:34;11.40;99.90
54461;DHT22;40371;49.414;11.010;2023-04-24T05:56:00;11.50;99.90
54461;DHT22;40371;49.414;11.010;2023-04-24T05:58:26;11.80;99.90
54461;DHT22;40371;49.414;11.010;2023-04-24T06:00:52;11.70;99.90
54461;DHT22;40371;49.414;11.010;2023-04-24T06:03:18;11.80;99.90
54461;DHT22;40371;49.414;11.010;2023-04-24T06:05:44;11.70;99.90
54461;DHT22;40371;49.414;11.010;2023-04-24T06:08:10;11.90;99.90
54461;DHT22;40371;49.414;11.010;2023-04-24T06:10:38;12.00;99.90
54461;DHT22;40371;49.414;11.010;2023-04-24T06:13:05;12.00;99.90
54461;DHT22;40371;49.414;11.010;2023-04-24T06:15:33;12.10;99.90
54461;DHT22;40371;49.414;11.010;2023-04-24T06:18:07;12.10;99.90
54461;DHT22;40371;49.414;11.010;2023-04-24T06:20:35;11.90;99.90
54461;DHT22;40371;49.414;11.010;2023-04-24T06:23:01;12.00;99.90
54461;DHT22;40371;49.414;11.010;2023-04-24T06:25:27;11.80;99.90
54461;DHT22;40371;49.414;11.010;2023-04-24T06:27:53;11.90;99.90
54461;DHT22;40371;49.414;11.010;2023-04-24T06:30:19;11.80;99.90
54461;DHT22;40371;49.414;11.010;2023-04-24T06:32:44;11.90;99.90
54461;DHT22;40371;49.414;11.010;2023-04-24T06:35:10;12.10;99.90
54461;DHT22;40371;49.414;11.010;2023-04-24T06:37:41;12.10;99.90
54461;DHT22;40371;49.414;11.010;2023-04-24T06:40:07;11.90;99.90
54461;DHT22;40371;49.414;11.010;2023-04-24T06:42:33;11.90;99.90
54461;DHT22;40371;49.414;11.010;2023-04-24T06:45:01;11.80;99.90
54461;DHT22;40371;49.414;11.010;2023-04-24T06:47:27;11.70;99.90
54461;DHT22;40371;49.414;11.010;2023-04-24T06:49:53;11.70;99.90
54461;DHT22;40371;49.414;11.010;2023-04-24T06:52:19;11.70;99.90
54461;DHT22;40371;49.414;11.010;2023-04-24T06:54:45;11.70;99.90
54461;DHT22;40371;49.414;11.010;2023-04-24T06:57:10;11.80;99.90
54461;DHT22;40371;49.414;11.010;2023-04-24T06:59:36;11.90;99.90
54461;DHT22;40371;49.414;11.010;2023-04-24T07:02:02;12.00;99.90
54461;DHT22;40371;49.414;11.010;2023-04-24T07:04:28;12.00;99.90
54461;DHT22;40371;49.414;11.010;2023-04-24T07:06:54;12.10;99.90
54461;DHT22;40371;49.414;11.010;2023-04-24T07:09:22;12.30;99.90
54461;DHT22;40371;49.414;11.010;2023-04-24T07:11:49;12.30;99.90
54461;DHT22;40371;49.414;11.010;2023-04-24T07:14:15;12.30;99.90
54461;DHT22;40371;49.414;11.010;2023-04-24T07:16:42;12.30;99.90
54461;DHT22;40371;49.414;11.010;2023-04-24T07:19:07;12.40;99.90
54461;DHT22;40371;49.414;11.010;2023-04-24T07:21:33;12.40;99.90
54461;DHT22;40371;49.414;11.010;2023-04-24T07:23:59;12.40;99.90
54461;DHT22;40371;49.414;11.010;2023-04-24T07:26:26;12.30;99.90
54461;DHT22;40371;49.414;11.010;2023-04-24T07:28:51;12.20;99.90
54461;DHT22;40371;49.414;11.010;2023-04-24T07:31:17;12.20;99.90
54461;DHT22;40371;49.414;11.010;2023-04-24T07:33:42;12.10;99.90
54461;DHT22;40371;49.414;11.010;2023-04-24T07:36:08;12.10;99.90
54461;DHT22;40371;49.414;11.010;2023-04-24T07:38:34;12.10;99.90
54461;DHT22;40371;49.414;11.010;2023-04-24T07:40:59;12.00;99.90
54461;DHT22;40371;49.414;11.010;2023-04-24T07:43:25;12.20;99.90
54461;DHT22;40371;49.414;11.010;2023-04-24T07:45:51;12.10;99.90
54461;DHT22;40371;49.414;11.010;2023-04-24T07:48:17;12.10;99.90
54461;DHT22;40371;49.414;11.010;2023-04-24T07:50:44;12.00;99.90
54461;DHT22;40371;49.414;11.010;2023-04-24T07:53:10;12.10;99.90
54461;DHT22;40371;49.414;11.010;2023-04-24T07:55:35;12.40;99.90
54461;DHT22;40371;49.414;11.010;2023-04-24T07:58:01;12.60;99.90
54461;DHT22;40371;49.414;11.010;2023-04-24T08:00:27;13.40;99.90
54461;DHT22;40371;49.414;11.010;2023-04-24T08:02:52;14.40;99.90
54461;DHT22;40371;49.414;11.010;2023-04-24T08:05:18;14.50;99.90
54461;DHT22;40371;49.414;11.010;2023-04-24T08:07:45;14.30;99.90
54461;DHT22;40371;49.414;11.010;2023-04-24T08:10:14;13.90;99.90
54461;DHT22;40371;49.414;11.010;2023-04-24T08:12:40;13.80;99.90
54461;DHT22;40371;49.414;11.010;2023-04-24T08:15:06;13.90;99.90
54461;DHT22;40371;49.414;11.010;2023-04-24T08:17:33;14.00;99.90
54461;DHT22;40371;49.414;11.010;2023-04-24T08:19:58;14.20;99.90
54461;DHT22;40371;49.414;11.010;2023-04-24T08:22:27;14.20;99.90
54461;DHT22;40371;49.414;11.010;2023-04-24T08:24:53;13.90;99.90
54461;DHT22;40371;49.414;11.010;2023-04-24T08:27:19;13.50;99.90
54461;DHT22;40371;49.414;11.010;2023-04-24T08:29:45;13.40;99.90
54461;DHT22;40371;49.414;11.010;2023-04-24T08:32:10;13.00;99.90
54461;DHT22;40371;49.414;11.010;2023-04-24T08:34:36;13.10;99.90
54461;DHT22;40371;49.414;11.010;2023-04-24T08:37:02;13.30;99.90
54461;DHT22;40371;49.414;11.010;2023-04-24T08:39:28;13.60;99.90
54461;DHT22;40371;49.414;11.010;2023-04-24T08:41:55;13.70;99.90
54461;DHT22;40371;49.414;11.010;2023-04-24T08:44:21;13.70;99.90
54461;DHT22;40371;49.414;11.010;2023-04-24T08:46:48;13.90;99.90
54461;DHT22;40371;49.414;11.010;2023-04-24T08:49:14;13.60;99.90
54461;DHT22;40371;49.414;11.010;2023-04-24T08:51:44;13.80;99.90
54461;DHT22;40371;49.414;11.010;2023-04-24T08:54:11;13.80;99.90
54461;DHT22;40371;49.414;11.010;2023-04-24T08:56:37;13.40;99.90
54461;DHT22;40371;49.414;11.010;2023-04-24T08:59:06;13.20;99.90
54461;DHT22;40371;49.414;11.010;2023-04-24T09:01:32;13.40;99.90
54461;DHT22;40371;49.414;11.010;2023-04-24T09:04:04;13.50;99.90
54461;DHT22;40371;49.414;11.010;2023-04-24T09:06:30;13.70;99.90
54461;DHT22;40371;49.414;11.010;2023-04-24T09:09:00;13.70;99.90
54461;DHT22;40371;49.414;11.010;2023-04-24T09:11:27;14.10;99.90
54461;DHT22;40371;49.414;11.010;2023-04-24T09:13:53;14.50;99.90
54461;DHT22;40371;49.414;11.010;2023-04-24T09:16:19;15.50;99.90
54461;DHT22;40371;49.414;11.010;2023-04-24T09:18:46;16.20;99.90
54461;DHT22;40371;49.414;11.010;2023-04-24T09:21:11;15.80;99.90
54461;DHT22;40371;49.414;11.010;2023-04-24T09:23:37;15.20;99.90
54461;DHT22;40371;49.414;11.010;2023-04-24T09:26:04;14.70;99.90
54461;DHT22;40371;49.414;11.010;2023-04-24T09:28:32;14.30;99.90
54461;DHT22;40371;49.414;11.010;2023-04-24T09:31:13;14.40;99.90
54461;DHT22;40371;49.414;11.010;2023-04-24T09:33:58;14.00;99.90
54461;DHT22;40371;49.414;11.010;2023-04-24T09:36:28;13.60;99.90
54461;DHT22;40371;49.414;11.010;2023-04-24T09:38:58;13.70;99.90
54461;DHT22;40371;49.414;11.010;2023-04-24T09:41:24;14.10;99.90
54461;DHT22;40371;49.414;11.010;2023-04-24T09:43:49;14.50;99.90
54461;DHT22;40371;49.414;11.010;2023-04-24T09:46:18;15.00;99.90
54461;DHT22;40371;49.414;11.010;2023-04-24T09:48:44;14.90;99.90
54461;DHT22;40371;49.414;11.010;2023-04-24T09:51:09;14.70;99.90
54461;DHT22;40371;49.414;11.010;2023-04-24T09:53:38;14.60;99.90
54461;DHT22;40371;49.414;11.010;2023-04-24T09:56:11;14.20;99.90
54461;DHT22;40371;49.414;11.010;2023-04-24T09:58:40;14.20;99.90
54461;DHT22;40371;49.414;11.010;2023-04-24T10:01:06;13.90;99.90
54461;DHT22;40371;49.414;11.010;2023-04-24T10:03:32;14.40;99.90
54461;DHT22;40371;49.414;11.010;2023-04-24T10:05:59;14.50;99.90
54461;DHT22;40371;49.414;11.010;2023-04-24T10:08:25;14.30;99.90
54461;DHT22;40371;49.414;11.010;2023-04-24T10:10:52;14.10;99.90
54461;DHT22;40371;49.414;11.010;2023-04-24T10:13:18;14.00;99.90
54461;DHT22;40371;49.414;11.010;2023-04-24T10:15:44;14.00;99.90
54461;DHT22;40371;49.414;11.010;2023-04-24T10:18:10;14.20;99.90
54461;DHT22;40371;49.414;11.010;2023-04-24T10:20:38;15.40;99.90
54461;DHT22;40371;49.414;11.010;2023-04-24T10:23:05;15.90;99.90
54461;DHT22;40371;49.414;11.010;2023-04-24T10:25:33;17.00;99.90
54461;DHT22;40371;49.414;11.010;2023-04-24T10:28:00;17.70;97.50
54461;DHT22;40371;49.414;11.010;2023-04-24T10:30:31;18.30;95.00
54461;DHT22;40371;49.414;11.010;2023-04-24T10:33:01;17.80;94.30
54461;DHT22;40371;49.414;11.010;2023-04-24T10:35:30;18.10;93.00
54461;DHT22;40371;49.414;11.010;2023-04-24T10:37:58;18.40;90.50
54461;DHT22;40371;49.414;11.010;2023-04-24T10:40:31;18.40;90.80
54461;DHT22;40371;49.414;11.010;2023-04-24T10:42:57;19.20;86.90
54461;DHT22;40371;49.414;11.010;2023-04-24T10:45:24;18.70;86.10
54461;DHT22;40371;49.414;11.010;2023-04-24T10:48:00;18.40;88.20
54461;DHT22;40371;49.414;11.010;2023-04-24T10:50:42;17.50;94.60
54461;DHT22;40371;49.414;11.010;2023-04-24T10:53:14;16.00;98.70
54461;DHT22;40371;49.414;11.010;2023-04-24T10:55:49;15.30;99.90
54461;DHT22;40371;49.414;11.010;2023-04-24T10:58:16;14.90;99.90
54461;DHT22;40371;49.414;11.010;2023-04-24T11:00:43;14.80;99.90
54461;DHT22;40371;49.414;11.010;2023-04-24T11:03:29;14.80;99.90
54461;DHT22;40371;49.414;11.010;2023-04-24T11:06:00;14.80;99.90
54461;DHT22;40371;49.414;11.010;2023-04-24T11:08:38;14.40;99.90
54461;DHT22;40371;49.414;11.010;2023-04-24T11:11:17;14.50;99.90
54461;DHT22;40371;49.414;11.010;2023-04-24T11:16:34;14.40;99.90
54461;DHT22;40371;49.414;11.010;2023-04-24T11:21:46;17.10;98.90
54461;DHT22;40371;49.414;11.010;2023-04-24T11:27:19;15.90;99.90
54461;DHT22;40371;49.414;11.010;2023-04-24T11:32:39;17.20;99.90
54461;DHT22;40371;49.414;11.010;2023-04-24T11:35:19;19.00;99.70
54461;DHT22;40371;49.414;11.010;2023-04-24T11:37:51;16.90;96.60
54461;DHT22;40371;49.414;11.010;2023-04-24T11:40:18;15.60;97.40
54461;DHT22;40371;49.414;11.010;2023-04-24T11:42:49;16.90;97.00
54461;DHT22;40371;49.414;11.010;2023-04-24T11:45:17;17.90;95.20
54461;DHT22;40371;49.414;11.010;2023-04-24T11:47:44;16.70;94.40
54461;DHT22;40371;49.414;11.010;2023-04-24T11:50:18;15.50;96.80
54461;DHT22;40371;49.414;11.010;2023-04-24T11:52:46;15.00;97.30
54461;DHT22;40371;49.414;11.010;2023-04-24T11:57:48;14.20;99.20
54461;DHT22;40371;49.414;11.010;2023-04-24T12:00:19;14.20;99.70
54461;DHT22;40371;49.414;11.010;2023-04-24T12:02:46;14.30;99.60
54461;DHT22;40371;49.414;11.010;2023-04-24T12:05:26;14.30;98.90
54461;DHT22;40371;49.414;11.010;2023-04-24T12:07:52;14.40;98.60
54461;DHT22;40371;49.414;11.010;2023-04-24T12:10:26;14.70;98.70
54461;DHT22;40371;49.414;11.010;2023-04-24T12:12:52;14.50;98.20
54461;DHT22;40371;49.414;11.010;2023-04-24T12:15:20;14.80;99.10
54461;DHT22;40371;49.414;11.010;2023-04-24T12:17:45;15.00;99.40
54461;DHT22;40371;49.414;11.010;2023-04-24T12:20:12;14.90;99.20
54461;DHT22;40371;49.414;11.010;2023-04-24T12:22:52;15.60;99.90
54461;DHT22;40371;49.414;11.010;2023-04-24T12:25:31;15.80;99.40
54461;DHT22;40371;49.414;11.010;2023-04-24T12:30:30;15.90;97.50
54461;DHT22;40371;49.414;11.010;2023-04-24T12:32:58;15.80;97.90
54461;DHT22;40371;49.414;11.010;2023-04-24T12:35:26;15.40;96.80
54461;DHT22;40371;49.414;11.010;2023-04-24T12:37:52;15.10;97.00
54461;DHT22;40371;49.414;11.010;2023-04-24T12:40:20;14.70;97.30
54461;DHT22;40371;49.414;11.010;2023-04-24T12:42:50;15.00;97.70
54461;DHT22;40371;49.414;11.010;2023-04-24T12:45:17;14.60;96.80
54461;DHT22;40371;49.414;11.010;2023-04-24T12:47:45;14.50;97.60
54461;DHT22;40371;49.414;11.010;2023-04-24T12:50:12;14.40;98.20
54461;DHT22;40371;49.414;11.010;2023-04-24T12:52:38;14.50;98.20
54461;DHT22;40371;49.414;11.010;2023-04-24T12:55:05;14.50;99.50
54461;DHT22;40371;49.414;11.010;2023-04-24T12:57:34;14.80;99.10
54461;DHT22;40371;49.414;11.010;2023-04-24T13:00:01;15.10;99.00
54461;DHT22;40371;49.414;11.010;2023-04-24T13:02:28;14.90;98.40
54461;DHT22;40371;49.414;11.010;2023-04-24T13:04:55;14.90;98.80
54461;DHT22;40371;49.414;11.010;2023-04-24T13:07:23;15.20;98.80
54461;DHT22;40371;49.414;11.010;2023-04-24T13:09:50;15.10;98.80
54461;DHT22;40371;49.414;11.010;2023-04-24T13:12:16;14.80;99.40
54461;DHT22;40371;49.414;11.010;2023-04-24T13:14:42;14.90;98.30
54461;DHT22;40371;49.414;11.010;2023-04-24T13:17:08;15.00;98.60
54461;DHT22;40371;49.414;11.010;2023-04-24T13:19:39;15.10;99.30
54461;DHT22;40371;49.414;11.010;2023-04-24T13:22:05;14.80;99.90
54461;DHT22;40371;49.414;11.010;2023-04-24T13:24:31;14.20;99.40
54461;DHT22;40371;49.414;11.010;2023-04-24T13:26:59;14.30;99.50
54461;DHT22;40371;49.414;11.010;2023-04-24T13:29:26;14.20;99.90
54461;DHT22;40371;49.414;11.010;2023-04-24T13:31:53;13.90;99.90
54461;DHT22;40371;49.414;11.010;2023-04-24T13:34:21;14.00;99.90
54461;DHT22;40371;49.414;11.010;2023-04-24T13:36:47;14.00;99.90
54461;DHT22;40371;49.414;11.010;2023-04-24T13:39:13;14.10;99.90
54461;DHT22;40371;49.414;11.010;2023-04-24T13:41:39;14.00;99.90
54461;DHT22;40371;49.414;11.010;2023-04-24T13:44:06;13.60;99.90
54461;DHT22;40371;49.414;11.010;2023-04-24T13:46:32;13.40;99.90
54461;DHT22;40371;49.414;11.010;2023-04-24T13:48:58;13.10;99.90
54461;DHT22;40371;49.414;11.010;2023-04-24T13:51:25;13.00;99.90
54461;DHT22;40371;49.414;11.010;2023-04-24T13:53:53;12.90;99.90
54461;DHT22;40371;49.414;11.010;2023-04-24T13:56:18;13.10;99.90
54461;DHT22;40371;49.414;11.010;2023-04-24T13:58:45;13.10;99.90
54461;DHT22;40371;49.414;11.010;2023-04-24T14:01:10;13.10;99.90
54461;DHT22;40371;49.414;11.010;2023-04-24T14:03:37;13.20;99.90
54461;DHT22;40371;49.414;11.010;2023-04-24T14:06:03;13.30;99.90
54461;DHT22;40371;49.414;11.010;2023-04-24T14:08:29;13.60;99.90
54461;DHT22;40371;49.414;11.010;2023-04-24T14:10:55;13.70;99.90
54461;DHT22;40371;49.414;11.010;2023-04-24T14:13:20;13.90;99.90
54461;DHT22;40371;49.414;11.010;2023-04-24T14:15:46;13.80;99.90
54461;DHT22;40371;49.414;11.010;2023-04-24T14:18:12;13.80;99.90
54461;DHT22;40371;49.414;11.010;2023-04-24T14:20:39;13.90;99.90
54461;DHT22;40371;49.414;11.010;2023-04-24T14:23:06;13.90;99.90
54461;DHT22;40371;49.414;11.010;2023-04-24T14:25:33;14.00;99.90
54461;DHT22;40371;49.414;11.010;2023-04-24T14:27:59;13.70;99.90
54461;DHT22;40371;49.414;11.010;2023-04-24T14:30:25;13.90;99.90
54461;DHT22;40371;49.414;11.010;2023-04-24T14:32:50;13.90;99.90
54461;DHT22;40371;49.414;11.010;2023-04-24T14:35:16;13.90;99.90
54461;DHT22;40371;49.414;11.010;2023-04-24T14:37:42;13.50;99.90
54461;DHT22;40371;49.414;11.010;2023-04-24T14:40:12;13.30;99.90
54461;DHT22;40371;49.414;11.010;2023-04-24T14:42:38;13.30;99.90
54461;DHT22;40371;49.414;11.010;2023-04-24T14:45:04;13.40;99.90
54461;DHT22;40371;49.414;11.010;2023-04-24T14:47:30;13.60;99.90
54461;DHT22;40371;49.414;11.010;2023-04-24T14:49:56;13.00;99.90
54461;DHT22;40371;49.414;11.010;2023-04-24T14:52:21;12.80;99.90
54461;DHT22;40371;49.414;11.010;2023-04-24T14:54:47;12.70;99.90
54461;DHT22;40371;49.414;11.010;2023-04-24T14:57:13;12.70;99.90
54461;DHT22;40371;49.414;11.010;2023-04-24T14:59:38;12.80;99.90
54461;DHT22;40371;49.414;11.010;2023-04-24T15:02:04;12.90;99.90
54461;DHT22;40371;49.414;11.010;2023-04-24T15:04:30;12.90;99.90
54461;DHT22;40371;49.414;11.010;2023-04-24T15:06:56;13.20;99.90
54461;DHT22;40371;49.414;11.010;2023-04-24T15:09:24;13.50;99.90
54461;DHT22;40371;49.414;11.010;2023-04-24T15:11:51;13.50;99.90
54461;DHT22;40371;49.414;11.010;2023-04-24T15:14:17;13.90;99.90
54461;DHT22;40371;49.414;11.010;2023-04-24T15:16:43;14.00;99.90
54461;DHT22;40371;49.414;11.010;2023-04-24T15:19:09;14.20;99.90
54461;DHT22;40371;49.414;11.010;2023-04-24T15:21:39;14.20;99.90
54461;DHT22;40371;49.414;11.010;2023-04-24T15:24:07;13.90;99.90
54461;DHT22;40371;49.414;11.010;2023-04-24T15:26:34;13.90;99.90
54461;DHT22;40371;49.414;11.010;2023-04-24T15:28:59;13.80;99.90
54461;DHT22;40371;49.414;11.010;2023-04-24T15:31:25;13.70;99.90
54461;DHT22;40371;49.414;11.010;2023-04-24T15:33:51;13.70;99.90